sensor_id;sensor_type;location;lat;lon;timestamp;P1;durP1;ratioP1;P2;durP2;ratioP2
30571;SDS011;17348;50.948;10.696;2023-08-07T00:01:41;1.08;;;0.95;;
30571;SDS011;17348;50.948;10.696;2023-08-07T00:04:45;2.33;;;1.38;;
30571;SDS011;17348;50.948;10.696;2023-08-07T00:07:47;1.70;;;1.00;;
30571;SDS011;17348;50.948;10.696;2023-08-07T00:10:50;6.10;;;1.13;;
30571;SDS011;17348;50.948;10.696;2023-08-07T00:13:52;0.88;;;0.82;;
30571;SDS011;17348;50.948;10.696;2023-08-07T00:16:56;2.03;;;0.98;;
30571;SDS011;17348;50.948;10.696;2023-08-07T00:20:00;1.10;;;1.00;;
30571;SDS011;17348;50.948;10.696;2023-08-07T00:23:03;4.15;;;0.90;;
30571;SDS011;17348;50.948;10.696;2023-08-07T00:26:05;1.77;;;0.98;;
30571;SDS011;17348;50.948;10.696;2023-08-07T00:29:07;0.93;;;0.82;;
30571;SDS011;17348;50.948;10.696;2023-08-07T00:32:11;0.77;;;0.70;;
30571;SDS011;17348;50.948;10.696;2023-08-07T00:35:13;0.55;;;0.55;;
30571;SDS011;17348;50.948;10.696;2023-08-07T00:38:16;0.55;;;0.50;;
30571;SDS011;17348;50.948;10.696;2023-08-07T00:41:18;0.95;;;0.63;;
30571;SDS011;17348;50.948;10.696;2023-08-07T00:44:20;0.82;;;0.82;;
30571;SDS011;17348;50.948;10.696;2023-08-07T00:47:25;4.82;;;0.85;;
30571;SDS011;17348;50.948;10.696;2023-08-07T00:50:28;0.60;;;0.60;;
30571;SDS011;17348;50.948;10.696;2023-08-07T00:53:30;4.88;;;0.68;;
30571;SDS011;17348;50.948;10.696;2023-08-07T00:56:32;1.40;;;0.60;;
30571;SDS011;17348;50.948;10.696;2023-08-07T00:59:35;0.45;;;0.35;;
30571;SDS011;17348;50.948;10.696;2023-08-07T01:02:39;1.38;;;0.45;;
30571;SDS011;17348;50.948;10.696;2023-08-07T01:05:42;1.60;;;0.60;;
30571;SDS011;17348;50.948;10.696;2023-08-07T01:08:44;0.85;;;0.52;;
30571;SDS011;17348;50.948;10.696;2023-08-07T01:11:48;3.35;;;0.88;;
30571;SDS011;17348;50.948;10.696;2023-08-07T01:14:58;3.40;;;0.73;;
30571;SDS011;17348;50.948;10.696;2023-08-07T01:18:11;6.05;;;1.38;;
30571;SDS011;17348;50.948;10.696;2023-08-07T01:21:18;1.25;;;0.80;;
30571;SDS011;17348;50.948;10.696;2023-08-07T01:24:22;2.05;;;0.90;;
30571;SDS011;17348;50.948;10.696;2023-08-07T01:27:28;3.15;;;0.90;;
30571;SDS011;17348;50.948;10.696;2023-08-07T01:30:35;2.88;;;1.08;;
30571;SDS011;17348;50.948;10.696;2023-08-07T01:33:43;0.68;;;0.50;;
30571;SDS011;17348;50.948;10.696;2023-08-07T01:36:49;1.05;;;0.90;;
30571;SDS011;17348;50.948;10.696;2023-08-07T01:39:54;1.83;;;0.73;;
30571;SDS011;17348;50.948;10.696;2023-08-07T01:42:59;1.23;;;0.70;;
30571;SDS011;17348;50.948;10.696;2023-08-07T01:46:02;1.48;;;0.90;;
30571;SDS011;17348;50.948;10.696;2023-08-07T01:49:07;0.82;;;0.70;;
30571;SDS011;17348;50.948;10.696;2023-08-07T01:52:09;1.52;;;0.88;;
30571;SDS011;17348;50.948;10.696;2023-08-07T01:55:14;1.55;;;0.50;;
30571;SDS011;17348;50.948;10.696;2023-08-07T01:58:18;0.82;;;0.65;;
30571;SDS011;17348;50.948;10.696;2023-08-07T02:01:21;4.03;;;0.80;;
30571;SDS011;17348;50.948;10.696;2023-08-07T02:04:23;2.58;;;0.77;;
30571;SDS011;17348;50.948;10.696;2023-08-07T02:07:25;2.20;;;0.70;;
30571;SDS011;17348;50.948;10.696;2023-08-07T02:10:30;0.65;;;0.60;;
30571;SDS011;17348;50.948;10.696;2023-08-07T02:13:32;1.48;;;0.90;;
30571;SDS011;17348;50.948;10.696;2023-08-07T02:16:34;0.70;;;0.60;;
30571;SDS011;17348;50.948;10.696;2023-08-07T02:19:37;1.25;;;0.80;;
30571;SDS011;17348;50.948;10.696;2023-08-07T02:22:40;1.23;;;0.80;;
30571;SDS011;17348;50.948;10.696;2023-08-07T02:25:43;0.80;;;0.50;;
30571;SDS011;17348;50.948;10.696;2023-08-07T02:28:46;0.98;;;0.70;;
30571;SDS011;17348;50.948;10.696;2023-08-07T02:31:48;4.03;;;1.02;;
30571;SDS011;17348;50.948;10.696;2023-08-07T02:34:50;2.45;;;0.93;;
30571;SDS011;17348;50.948;10.696;2023-08-07T02:37:53;4.07;;;1.38;;
30571;SDS011;17348;50.948;10.696;2023-08-07T02:40:56;3.10;;;0.88;;
30571;SDS011;17348;50.948;10.696;2023-08-07T02:43:59;3.55;;;0.75;;
30571;SDS011;17348;50.948;10.696;2023-08-07T02:47:04;1.77;;;1.20;;
30571;SDS011;17348;50.948;10.696;2023-08-07T02:50:06;1.38;;;0.82;;
30571;SDS011;17348;50.948;10.696;2023-08-07T02:53:09;1.02;;;0.73;;
30571;SDS011;17348;50.948;10.696;2023-08-07T02:56:14;4.07;;;0.90;;
30571;SDS011;17348;50.948;10.696;2023-08-07T02:59:16;2.53;;;0.68;;
30571;SDS011;17348;50.948;10.696;2023-08-07T03:02:18;0.73;;;0.68;;
30571;SDS011;17348;50.948;10.696;2023-08-07T03:05:21;0.82;;;0.57;;
30571;SDS011;17348;50.948;10.696;2023-08-07T03:08:23;1.38;;;0.60;;
30571;SDS011;17348;50.948;10.696;2023-08-07T03:11:27;1.08;;;0.60;;
30571;SDS011;17348;50.948;10.696;2023-08-07T03:14:30;1.02;;;0.52;;
30571;SDS011;17348;50.948;10.696;2023-08-07T03:17:33;2.75;;;1.17;;
30571;SDS011;17348;50.948;10.696;2023-08-07T03:20:37;2.15;;;0.45;;
30571;SDS011;17348;50.948;10.696;2023-08-07T03:23:39;0.40;;;0.40;;
30571;SDS011;17348;50.948;10.696;2023-08-07T03:26:46;2.05;;;0.50;;
30571;SDS011;17348;50.948;10.696;2023-08-07T03:29:49;0.95;;;0.50;;
30571;SDS011;17348;50.948;10.696;2023-08-07T03:32:52;0.50;;;0.40;;
30571;SDS011;17348;50.948;10.696;2023-08-07T03:35:54;1.52;;;0.85;;
30571;SDS011;17348;50.948;10.696;2023-08-07T03:38:56;0.93;;;0.60;;
30571;SDS011;17348;50.948;10.696;2023-08-07T03:42:00;0.93;;;0.90;;
30571;SDS011;17348;50.948;10.696;2023-08-07T03:45:03;0.45;;;0.45;;
30571;SDS011;17348;50.948;10.696;2023-08-07T03:48:06;0.50;;;0.50;;
30571;SDS011;17348;50.948;10.696;2023-08-07T03:51:08;1.42;;;0.70;;
30571;SDS011;17348;50.948;10.696;2023-08-07T03:54:11;1.05;;;0.47;;
30571;SDS011;17348;50.948;10.696;2023-08-07T03:57:14;0.50;;;0.47;;
30571;SDS011;17348;50.948;10.696;2023-08-07T04:00:19;3.53;;;0.60;;
30571;SDS011;17348;50.948;10.696;2023-08-07T04:03:22;4.65;;;1.35;;
30571;SDS011;17348;50.948;10.696;2023-08-07T04:06:25;0.77;;;0.65;;
30571;SDS011;17348;50.948;10.696;2023-08-07T04:09:27;0.68;;;0.60;;
30571;SDS011;17348;50.948;10.696;2023-08-07T04:12:33;0.50;;;0.50;;
30571;SDS011;17348;50.948;10.696;2023-08-07T04:15:35;6.00;;;0.40;;
30571;SDS011;17348;50.948;10.696;2023-08-07T04:18:38;0.95;;;0.73;;
30571;SDS011;17348;50.948;10.696;2023-08-07T04:21:40;0.60;;;0.45;;
30571;SDS011;17348;50.948;10.696;2023-08-07T04:24:44;1.60;;;0.63;;
30571;SDS011;17348;50.948;10.696;2023-08-07T04:27:48;0.55;;;0.40;;
30571;SDS011;17348;50.948;10.696;2023-08-07T04:30:51;0.57;;;0.30;;
30571;SDS011;17348;50.948;10.696;2023-08-07T04:33:53;0.47;;;0.40;;
30571;SDS011;17348;50.948;10.696;2023-08-07T04:36:56;1.27;;;0.50;;
30571;SDS011;17348;50.948;10.696;2023-08-07T04:39:58;0.82;;;0.43;;
30571;SDS011;17348;50.948;10.696;2023-08-07T04:43:03;0.60;;;0.43;;
30571;SDS011;17348;50.948;10.696;2023-08-07T04:46:06;0.40;;;0.40;;
30571;SDS011;17348;50.948;10.696;2023-08-07T04:49:09;0.30;;;0.30;;
30571;SDS011;17348;50.948;10.696;2023-08-07T04:52:13;6.18;;;0.45;;
30571;SDS011;17348;50.948;10.696;2023-08-07T04:55:16;3.17;;;0.50;;
30571;SDS011;17348;50.948;10.696;2023-08-07T04:58:22;0.30;;;0.22;;
30571;SDS011;17348;50.948;10.696;2023-08-07T05:01:25;0.98;;;0.20;;
30571;SDS011;17348;50.948;10.696;2023-08-07T05:04:27;0.28;;;0.28;;
30571;SDS011;17348;50.948;10.696;2023-08-07T05:07:29;0.10;;;0.10;;
30571;SDS011;17348;50.948;10.696;2023-08-07T05:10:34;0.30;;;0.30;;
30571;SDS011;17348;50.948;10.696;2023-08-07T05:13:40;0.65;;;0.30;;
30571;SDS011;17348;50.948;10.696;2023-08-07T05:16:43;1.30;;;0.30;;
30571;SDS011;17348;50.948;10.696;2023-08-07T05:19:45;0.52;;;0.10;;
30571;SDS011;17348;50.948;10.696;2023-08-07T05:22:48;2.50;;;0.20;;
30571;SDS011;17348;50.948;10.696;2023-08-07T05:25:50;0.30;;;0.20;;
30571;SDS011;17348;50.948;10.696;2023-08-07T05:28:54;0.10;;;0.10;;
30571;SDS011;17348;50.948;10.696;2023-08-07T05:31:58;0.43;;;0.10;;
30571;SDS011;17348;50.948;10.696;2023-08-07T05:35:00;1.30;;;0.28;;
30571;SDS011;17348;50.948;10.696;2023-08-07T05:38:03;0.20;;;0.15;;
30571;SDS011;17348;50.948;10.696;2023-08-07T05:41:05;0.75;;;0.15;;
30571;SDS011;17348;50.948;10.696;2023-08-07T05:44:09;0.15;;;0.10;;
30571;SDS011;17348;50.948;10.696;2023-08-07T05:47:11;0.57;;;0.15;;
30571;SDS011;17348;50.948;10.696;2023-08-07T05:50:13;0.10;;;0.10;;
30571;SDS011;17348;50.948;10.696;2023-08-07T05:53:15;0.10;;;0.10;;
30571;SDS011;17348;50.948;10.696;2023-08-07T05:56:18;0.10;;;0.10;;
30571;SDS011;17348;50.948;10.696;2023-08-07T05:59:22;0.10;;;0.10;;
30571;SDS011;17348;50.948;10.696;2023-08-07T06:02:25;0.15;;;0.15;;
30571;SDS011;17348;50.948;10.696;2023-08-07T06:05:27;0.47;;;0.30;;
30571;SDS011;17348;50.948;10.696;2023-08-07T06:08:30;1.48;;;0.35;;
30571;SDS011;17348;50.948;10.696;2023-08-07T06:11:32;3.58;;;0.17;;
30571;SDS011;17348;50.948;10.696;2023-08-07T06:14:36;0.35;;;0.30;;
30571;SDS011;17348;50.948;10.696;2023-08-07T06:17:38;0.40;;;0.32;;
30571;SDS011;17348;50.948;10.696;2023-08-07T06:20:41;0.45;;;0.20;;
30571;SDS011;17348;50.948;10.696;2023-08-07T06:23:44;0.28;;;0.15;;
30571;SDS011;17348;50.948;10.696;2023-08-07T06:26:47;0.47;;;0.20;;
30571;SDS011;17348;50.948;10.696;2023-08-07T06:29:51;0.20;;;0.20;;
30571;SDS011;17348;50.948;10.696;2023-08-07T06:32:53;8.68;;;0.40;;
30571;SDS011;17348;50.948;10.696;2023-08-07T06:35:55;3.95;;;1.00;;
30571;SDS011;17348;50.948;10.696;2023-08-07T06:38:58;0.17;;;0.17;;
30571;SDS011;17348;50.948;10.696;2023-08-07T06:42:01;2.20;;;0.30;;
30571;SDS011;17348;50.948;10.696;2023-08-07T06:45:05;0.00;;;0.00;;
30571;SDS011;17348;50.948;10.696;2023-08-07T06:48:08;1.20;;;0.10;;
30571;SDS011;17348;50.948;10.696;2023-08-07T06:51:10;0.10;;;0.00;;
30571;SDS011;17348;50.948;10.696;2023-08-07T06:54:13;0.15;;;0.10;;
30571;SDS011;17348;50.948;10.696;2023-08-07T06:57:16;0.20;;;0.00;;
30571;SDS011;17348;50.948;10.696;2023-08-07T07:00:19;0.75;;;0.10;;
30571;SDS011;17348;50.948;10.696;2023-08-07T07:03:24;0.00;;;0.00;;
30571;SDS011;17348;50.948;10.696;2023-08-07T07:06:27;1.55;;;0.20;;
30571;SDS011;17348;50.948;10.696;2023-08-07T07:09:30;1.20;;;0.10;;
30571;SDS011;17348;50.948;10.696;2023-08-07T07:12:32;0.15;;;0.10;;
30571;SDS011;17348;50.948;10.696;2023-08-07T07:15:36;0.10;;;0.10;;
30571;SDS011;17348;50.948;10.696;2023-08-07T07:18:38;3.15;;;0.20;;
30571;SDS011;17348;50.948;10.696;2023-08-07T07:21:43;1.92;;;0.13;;
30571;SDS011;17348;50.948;10.696;2023-08-07T07:24:52;0.57;;;0.05;;
30571;SDS011;17348;50.948;10.696;2023-08-07T07:27:55;0.30;;;0.10;;
30571;SDS011;17348;50.948;10.696;2023-08-07T07:30:58;0.55;;;0.28;;
30571;SDS011;17348;50.948;10.696;2023-08-07T07:34:01;0.10;;;0.10;;
30571;SDS011;17348;50.948;10.696;2023-08-07T07:37:04;0.43;;;0.13;;
30571;SDS011;17348;50.948;10.696;2023-08-07T07:40:07;0.20;;;0.10;;
30571;SDS011;17348;50.948;10.696;2023-08-07T07:43:10;4.10;;;0.20;;
30571;SDS011;17348;50.948;10.696;2023-08-07T07:46:14;1.42;;;0.15;;
30571;SDS011;17348;50.948;10.696;2023-08-07T07:49:16;0.15;;;0.10;;
30571;SDS011;17348;50.948;10.696;2023-08-07T07:52:19;0.13;;;0.10;;
30571;SDS011;17348;50.948;10.696;2023-08-07T07:55:22;1.38;;;0.20;;
30571;SDS011;17348;50.948;10.696;2023-08-07T07:58:24;0.28;;;0.10;;
30571;SDS011;17348;50.948;10.696;2023-08-07T08:01:28;0.43;;;0.30;;
30571;SDS011;17348;50.948;10.696;2023-08-07T08:04:30;0.45;;;0.20;;
30571;SDS011;17348;50.948;10.696;2023-08-07T08:07:36;5.38;;;0.28;;
30571;SDS011;17348;50.948;10.696;2023-08-07T08:10:39;1.67;;;0.43;;
30571;SDS011;17348;50.948;10.696;2023-08-07T08:13:41;0.25;;;0.22;;
30571;SDS011;17348;50.948;10.696;2023-08-07T08:16:45;1.00;;;0.30;;
30571;SDS011;17348;50.948;10.696;2023-08-07T08:19:47;0.52;;;0.45;;
30571;SDS011;17348;50.948;10.696;2023-08-07T08:22:50;0.10;;;0.10;;
30571;SDS011;17348;50.948;10.696;2023-08-07T08:25:52;1.85;;;0.10;;
30571;SDS011;17348;50.948;10.696;2023-08-07T08:28:55;0.00;;;0.00;;
30571;SDS011;17348;50.948;10.696;2023-08-07T08:31:58;0.52;;;0.15;;
30571;SDS011;17348;50.948;10.696;2023-08-07T08:35:01;0.10;;;0.10;;
30571;SDS011;17348;50.948;10.696;2023-08-07T08:38:03;0.10;;;0.10;;
30571;SDS011;17348;50.948;10.696;2023-08-07T08:41:06;0.52;;;0.15;;
30571;SDS011;17348;50.948;10.696;2023-08-07T08:44:10;0.28;;;0.10;;
30571;SDS011;17348;50.948;10.696;2023-08-07T08:47:16;0.10;;;0.00;;
30571;SDS011;17348;50.948;10.696;2023-08-07T08:50:19;0.20;;;0.17;;
30571;SDS011;17348;50.948;10.696;2023-08-07T08:53:22;0.00;;;0.00;;
30571;SDS011;17348;50.948;10.696;2023-08-07T08:56:25;1.13;;;0.10;;
30571;SDS011;17348;50.948;10.696;2023-08-07T08:59:27;1.42;;;0.10;;
30571;SDS011;17348;50.948;10.696;2023-08-07T09:02:31;0.00;;;0.00;;
30571;SDS011;17348;50.948;10.696;2023-08-07T09:05:33;0.10;;;0.10;;
30571;SDS011;17348;50.948;10.696;2023-08-07T09:08:38;0.55;;;0.20;;
30571;SDS011;17348;50.948;10.696;2023-08-07T09:11:42;1.55;;;0.22;;
30571;SDS011;17348;50.948;10.696;2023-08-07T09:14:47;0.55;;;0.20;;
30571;SDS011;17348;50.948;10.696;2023-08-07T09:17:55;1.45;;;0.10;;
30571;SDS011;17348;50.948;10.696;2023-08-07T09:20:59;0.20;;;0.20;;
30571;SDS011;17348;50.948;10.696;2023-08-07T09:24:01;0.10;;;0.10;;
30571;SDS011;17348;50.948;10.696;2023-08-07T09:27:06;0.13;;;0.10;;
30571;SDS011;17348;50.948;10.696;2023-08-07T09:30:10;0.35;;;0.30;;
30571;SDS011;17348;50.948;10.696;2023-08-07T09:33:14;0.38;;;0.20;;
30571;SDS011;17348;50.948;10.696;2023-08-07T09:36:16;0.32;;;0.15;;
30571;SDS011;17348;50.948;10.696;2023-08-07T09:39:19;0.93;;;0.28;;
30571;SDS011;17348;50.948;10.696;2023-08-07T09:42:25;0.28;;;0.28;;
30571;SDS011;17348;50.948;10.696;2023-08-07T09:45:32;3.22;;;0.20;;
30571;SDS011;17348;50.948;10.696;2023-08-07T09:48:43;0.75;;;0.52;;
30571;SDS011;17348;50.948;10.696;2023-08-07T09:51:45;0.32;;;0.32;;
30571;SDS011;17348;50.948;10.696;2023-08-07T09:54:51;2.28;;;0.30;;
30571;SDS011;17348;50.948;10.696;2023-08-07T09:57:56;0.35;;;0.30;;
30571;SDS011;17348;50.948;10.696;2023-08-07T10:00:59;0.52;;;0.30;;
30571;SDS011;17348;50.948;10.696;2023-08-07T10:04:06;0.40;;;0.40;;
30571;SDS011;17348;50.948;10.696;2023-08-07T10:07:11;1.25;;;0.30;;
30571;SDS011;17348;50.948;10.696;2023-08-07T10:10:16;0.40;;;0.30;;
30571;SDS011;17348;50.948;10.696;2023-08-07T10:13:19;1.35;;;0.20;;
30571;SDS011;17348;50.948;10.696;2023-08-07T10:16:23;0.55;;;0.30;;
30571;SDS011;17348;50.948;10.696;2023-08-07T10:19:28;0.25;;;0.25;;
30571;SDS011;17348;50.948;10.696;2023-08-07T10:22:30;0.73;;;0.28;;
30571;SDS011;17348;50.948;10.696;2023-08-07T10:25:34;0.47;;;0.45;;
30571;SDS011;17348;50.948;10.696;2023-08-07T10:28:39;0.70;;;0.22;;
30571;SDS011;17348;50.948;10.696;2023-08-07T10:31:43;0.50;;;0.10;;
30571;SDS011;17348;50.948;10.696;2023-08-07T10:34:49;0.30;;;0.30;;
30571;SDS011;17348;50.948;10.696;2023-08-07T10:37:52;0.30;;;0.20;;
30571;SDS011;17348;50.948;10.696;2023-08-07T10:40:58;4.18;;;0.30;;
30571;SDS011;17348;50.948;10.696;2023-08-07T10:44:01;0.85;;;0.47;;
30571;SDS011;17348;50.948;10.696;2023-08-07T10:47:05;1.10;;;0.50;;
30571;SDS011;17348;50.948;10.696;2023-08-07T10:50:09;0.45;;;0.20;;
30571;SDS011;17348;50.948;10.696;2023-08-07T10:53:12;0.20;;;0.20;;
30571;SDS011;17348;50.948;10.696;2023-08-07T10:56:29;0.20;;;0.20;;
30571;SDS011;17348;50.948;10.696;2023-08-07T11:02:35;1.92;;;0.30;;
30571;SDS011;17348;50.948;10.696;2023-08-07T11:05:41;0.40;;;0.20;;
30571;SDS011;17348;50.948;10.696;2023-08-07T11:08:44;1.17;;;0.65;;
30571;SDS011;17348;50.948;10.696;2023-08-07T11:11:47;0.68;;;0.30;;
30571;SDS011;17348;50.948;10.696;2023-08-07T11:14:50;3.65;;;0.30;;
30571;SDS011;17348;50.948;10.696;2023-08-07T11:17:53;3.65;;;0.43;;
30571;SDS011;17348;50.948;10.696;2023-08-07T11:20:57;2.83;;;0.50;;
30571;SDS011;17348;50.948;10.696;2023-08-07T11:24:02;0.35;;;0.28;;
30571;SDS011;17348;50.948;10.696;2023-08-07T11:27:04;2.45;;;0.57;;
30571;SDS011;17348;50.948;10.696;2023-08-07T11:30:10;0.90;;;0.40;;
30571;SDS011;17348;50.948;10.696;2023-08-07T11:33:14;0.88;;;0.30;;
30571;SDS011;17348;50.948;10.696;2023-08-07T11:36:18;4.38;;;0.40;;
30571;SDS011;17348;50.948;10.696;2023-08-07T11:39:20;0.45;;;0.30;;
30571;SDS011;17348;50.948;10.696;2023-08-07T11:42:23;1.88;;;0.57;;
30571;SDS011;17348;50.948;10.696;2023-08-07T11:45:29;0.30;;;0.25;;
30571;SDS011;17348;50.948;10.696;2023-08-07T11:48:32;0.80;;;0.40;;
30571;SDS011;17348;50.948;10.696;2023-08-07T11:51:37;0.63;;;0.40;;
30571;SDS011;17348;50.948;10.696;2023-08-07T11:54:40;0.30;;;0.30;;
30571;SDS011;17348;50.948;10.696;2023-08-07T11:57:42;0.57;;;0.50;;
30571;SDS011;17348;50.948;10.696;2023-08-07T12:00:46;2.20;;;0.43;;
30571;SDS011;17348;50.948;10.696;2023-08-07T12:03:52;1.85;;;0.50;;
30571;SDS011;17348;50.948;10.696;2023-08-07T12:06:57;0.47;;;0.43;;
30571;SDS011;17348;50.948;10.696;2023-08-07T12:10:01;0.50;;;0.30;;
30571;SDS011;17348;50.948;10.696;2023-08-07T12:13:07;0.40;;;0.40;;
30571;SDS011;17348;50.948;10.696;2023-08-07T12:16:10;0.95;;;0.40;;
30571;SDS011;17348;50.948;10.696;2023-08-07T12:19:16;0.40;;;0.40;;
30571;SDS011;17348;50.948;10.696;2023-08-07T12:22:21;0.47;;;0.40;;
30571;SDS011;17348;50.948;10.696;2023-08-07T12:25:23;0.40;;;0.40;;
30571;SDS011;17348;50.948;10.696;2023-08-07T12:28:25;0.57;;;0.52;;
30571;SDS011;17348;50.948;10.696;2023-08-07T12:31:28;1.08;;;0.50;;
30571;SDS011;17348;50.948;10.696;2023-08-07T12:34:31;4.50;;;0.50;;
30571;SDS011;17348;50.948;10.696;2023-08-07T12:37:35;0.30;;;0.30;;
30571;SDS011;17348;50.948;10.696;2023-08-07T12:40:37;0.35;;;0.30;;
30571;SDS011;17348;50.948;10.696;2023-08-07T12:43:39;1.20;;;0.30;;
30571;SDS011;17348;50.948;10.696;2023-08-07T12:46:42;0.75;;;0.32;;
30571;SDS011;17348;50.948;10.696;2023-08-07T12:49:44;0.55;;;0.30;;
30571;SDS011;17348;50.948;10.696;2023-08-07T12:52:49;0.70;;;0.50;;
30571;SDS011;17348;50.948;10.696;2023-08-07T12:55:52;0.47;;;0.30;;
30571;SDS011;17348;50.948;10.696;2023-08-07T12:58:55;0.10;;;0.10;;
30571;SDS011;17348;50.948;10.696;2023-08-07T13:01:57;2.28;;;0.43;;
30571;SDS011;17348;50.948;10.696;2023-08-07T13:04:59;0.70;;;0.50;;
30571;SDS011;17348;50.948;10.696;2023-08-07T13:08:03;2.47;;;0.52;;
30571;SDS011;17348;50.948;10.696;2023-08-07T13:11:06;1.15;;;0.47;;
30571;SDS011;17348;50.948;10.696;2023-08-07T13:14:08;1.10;;;0.40;;
30571;SDS011;17348;50.948;10.696;2023-08-07T13:17:10;1.67;;;0.63;;
30571;SDS011;17348;50.948;10.696;2023-08-07T13:20:13;4.85;;;0.60;;
30571;SDS011;17348;50.948;10.696;2023-08-07T13:23:17;2.25;;;0.28;;
30571;SDS011;17348;50.948;10.696;2023-08-07T13:26:19;2.28;;;0.60;;
30571;SDS011;17348;50.948;10.696;2023-08-07T13:29:22;0.38;;;0.30;;
30571;SDS011;17348;50.948;10.696;2023-08-07T13:32:25;3.45;;;0.30;;
30571;SDS011;17348;50.948;10.696;2023-08-07T13:35:28;1.40;;;0.52;;
30571;SDS011;17348;50.948;10.696;2023-08-07T13:38:33;1.52;;;0.93;;
30571;SDS011;17348;50.948;10.696;2023-08-07T13:41:35;4.53;;;0.52;;
30571;SDS011;17348;50.948;10.696;2023-08-07T13:44:37;2.50;;;0.55;;
30571;SDS011;17348;50.948;10.696;2023-08-07T13:47:40;1.92;;;0.45;;
30571;SDS011;17348;50.948;10.696;2023-08-07T13:50:42;0.95;;;0.40;;
30571;SDS011;17348;50.948;10.696;2023-08-07T13:53:46;1.95;;;0.73;;
30571;SDS011;17348;50.948;10.696;2023-08-07T13:56:48;5.43;;;0.75;;
30571;SDS011;17348;50.948;10.696;2023-08-07T13:59:51;1.13;;;0.70;;
30571;SDS011;17348;50.948;10.696;2023-08-07T14:02:55;1.00;;;0.70;;
30571;SDS011;17348;50.948;10.696;2023-08-07T14:05:57;4.85;;;1.10;;
30571;SDS011;17348;50.948;10.696;2023-08-07T14:09:01;1.70;;;0.85;;
30571;SDS011;17348;50.948;10.696;2023-08-07T14:12:03;1.55;;;0.80;;
30571;SDS011;17348;50.948;10.696;2023-08-07T14:15:06;1.92;;;0.75;;
30571;SDS011;17348;50.948;10.696;2023-08-07T14:18:09;2.10;;;0.60;;
30571;SDS011;17348;50.948;10.696;2023-08-07T14:21:12;3.42;;;0.88;;
30571;SDS011;17348;50.948;10.696;2023-08-07T14:24:16;5.68;;;1.08;;
30571;SDS011;17348;50.948;10.696;2023-08-07T14:27:18;2.15;;;0.95;;
30571;SDS011;17348;50.948;10.696;2023-08-07T14:30:21;1.95;;;0.90;;
30571;SDS011;17348;50.948;10.696;2023-08-07T14:33:23;5.65;;;1.13;;
30571;SDS011;17348;50.948;10.696;2023-08-07T14:36:26;2.92;;;0.80;;
30571;SDS011;17348;50.948;10.696;2023-08-07T14:39:32;5.95;;;1.10;;
30571;SDS011;17348;50.948;10.696;2023-08-07T14:42:35;5.07;;;1.35;;
30571;SDS011;17348;50.948;10.696;2023-08-07T14:45:37;4.93;;;1.10;;
30571;SDS011;17348;50.948;10.696;2023-08-07T14:48:40;8.48;;;1.50;;
30571;SDS011;17348;50.948;10.696;2023-08-07T14:51:42;4.45;;;1.75;;
30571;SDS011;17348;50.948;10.696;2023-08-07T14:54:46;5.18;;;1.77;;
30571;SDS011;17348;50.948;10.696;2023-08-07T14:57:48;3.60;;;1.42;;
30571;SDS011;17348;50.948;10.696;2023-08-07T15:00:53;3.03;;;1.23;;
30571;SDS011;17348;50.948;10.696;2023-08-07T15:03:56;5.40;;;1.80;;
30571;SDS011;17348;50.948;10.696;2023-08-07T15:06:58;11.93;;;2.25;;
30571;SDS011;17348;50.948;10.696;2023-08-07T15:10:03;7.60;;;2.30;;
30571;SDS011;17348;50.948;10.696;2023-08-07T15:13:05;5.97;;;1.60;;
30571;SDS011;17348;50.948;10.696;2023-08-07T15:16:08;4.95;;;1.88;;
30571;SDS011;17348;50.948;10.696;2023-08-07T15:19:10;6.93;;;1.95;;
30571;SDS011;17348;50.948;10.696;2023-08-07T15:22:13;8.60;;;2.00;;
30571;SDS011;17348;50.948;10.696;2023-08-07T15:25:18;7.10;;;1.85;;
30571;SDS011;17348;50.948;10.696;2023-08-07T15:28:20;7.07;;;1.55;;
30571;SDS011;17348;50.948;10.696;2023-08-07T15:31:22;4.72;;;1.95;;
30571;SDS011;17348;50.948;10.696;2023-08-07T15:34:25;6.25;;;1.80;;
30571;SDS011;17348;50.948;10.696;2023-08-07T15:37:27;6.78;;;2.33;;
30571;SDS011;17348;50.948;10.696;2023-08-07T15:40:31;4.22;;;1.63;;
30571;SDS011;17348;50.948;10.696;2023-08-07T15:43:33;5.28;;;2.03;;
30571;SDS011;17348;50.948;10.696;2023-08-07T15:46:35;6.93;;;1.92;;
30571;SDS011;17348;50.948;10.696;2023-08-07T15:49:38;2.88;;;1.45;;
30571;SDS011;17348;50.948;10.696;2023-08-07T15:52:44;3.97;;;1.55;;
30571;SDS011;17348;50.948;10.696;2023-08-07T15:55:48;12.88;;;2.85;;
30571;SDS011;17348;50.948;10.696;2023-08-07T15:58:51;7.40;;;2.50;;
30571;SDS011;17348;50.948;10.696;2023-08-07T16:01:53;8.27;;;2.03;;
30571;SDS011;17348;50.948;10.696;2023-08-07T16:04:55;7.95;;;2.05;;
30571;SDS011;17348;50.948;10.696;2023-08-07T16:07:58;6.78;;;1.80;;
30571;SDS011;17348;50.948;10.696;2023-08-07T16:11:02;4.55;;;1.60;;
30571;SDS011;17348;50.948;10.696;2023-08-07T16:14:05;6.43;;;1.60;;
30571;SDS011;17348;50.948;10.696;2023-08-07T16:17:07;7.00;;;1.30;;
30571;SDS011;17348;50.948;10.696;2023-08-07T16:20:09;10.40;;;1.85;;
30571;SDS011;17348;50.948;10.696;2023-08-07T16:23:12;3.63;;;1.45;;
30571;SDS011;17348;50.948;10.696;2023-08-07T16:26:15;8.50;;;2.38;;
30571;SDS011;17348;50.948;10.696;2023-08-07T16:29:18;1.95;;;1.40;;
30571;SDS011;17348;50.948;10.696;2023-08-07T16:32:20;11.40;;;1.85;;
30571;SDS011;17348;50.948;10.696;2023-08-07T16:35:22;7.28;;;1.40;;
30571;SDS011;17348;50.948;10.696;2023-08-07T16:38:25;3.80;;;1.42;;
30571;SDS011;17348;50.948;10.696;2023-08-07T16:41:29;7.03;;;1.63;;
30571;SDS011;17348;50.948;10.696;2023-08-07T16:44:31;4.30;;;1.80;;
30571;SDS011;17348;50.948;10.696;2023-08-07T16:47:34;9.35;;;1.33;;
30571;SDS011;17348;50.948;10.696;2023-08-07T16:50:36;4.03;;;1.35;;
30571;SDS011;17348;50.948;10.696;2023-08-07T16:53:39;6.45;;;1.70;;
30571;SDS011;17348;50.948;10.696;2023-08-07T16:56:42;6.28;;;1.75;;
30571;SDS011;17348;50.948;10.696;2023-08-07T16:59:44;9.35;;;1.88;;
30571;SDS011;17348;50.948;10.696;2023-08-07T17:02:47;3.67;;;1.65;;
30571;SDS011;17348;50.948;10.696;2023-08-07T17:05:49;4.93;;;1.58;;
30571;SDS011;17348;50.948;10.696;2023-08-07T17:08:52;6.30;;;1.33;;
30571;SDS011;17348;50.948;10.696;2023-08-07T17:11:55;3.53;;;1.52;;
30571;SDS011;17348;50.948;10.696;2023-08-07T17:14:58;7.85;;;1.77;;
30571;SDS011;17348;50.948;10.696;2023-08-07T17:18:01;4.72;;;1.33;;
30571;SDS011;17348;50.948;10.696;2023-08-07T17:21:06;5.20;;;1.58;;
30571;SDS011;17348;50.948;10.696;2023-08-07T17:24:10;2.90;;;1.27;;
30571;SDS011;17348;50.948;10.696;2023-08-07T17:27:14;3.92;;;1.92;;
30571;SDS011;17348;50.948;10.696;2023-08-07T17:30:17;10.85;;;4.15;;
30571;SDS011;17348;50.948;10.696;2023-08-07T17:33:19;44.53;;;14.10;;
30571;SDS011;17348;50.948;10.696;2023-08-07T17:36:21;81.47;;;23.40;;
30571;SDS011;17348;50.948;10.696;2023-08-07T17:39:24;13.10;;;4.65;;
30571;SDS011;17348;50.948;10.696;2023-08-07T17:42:28;7.30;;;3.50;;
30571;SDS011;17348;50.948;10.696;2023-08-07T17:45:30;5.93;;;2.42;;
30571;SDS011;17348;50.948;10.696;2023-08-07T17:48:33;7.35;;;2.50;;
30571;SDS011;17348;50.948;10.696;2023-08-07T17:51:35;5.45;;;2.38;;
30571;SDS011;17348;50.948;10.696;2023-08-07T17:54:37;4.40;;;2.15;;
30571;SDS011;17348;50.948;10.696;2023-08-07T17:57:41;5.78;;;1.75;;
30571;SDS011;17348;50.948;10.696;2023-08-07T18:00:43;5.82;;;2.03;;
30571;SDS011;17348;50.948;10.696;2023-08-07T18:03:46;5.32;;;1.70;;
30571;SDS011;17348;50.948;10.696;2023-08-07T18:06:49;5.82;;;1.80;;
30571;SDS011;17348;50.948;10.696;2023-08-07T18:09:52;5.28;;;1.98;;